Cleveland Hopkins International Airport


Codes: KCLE/CLE
Name: Cleveland Hopkins International Airport
City: Cleveland
Country: United States
Elevation: 791 ft.
Website:
Wikipedia:

Photos at Cleveland Hopkins International Airport


   Photos courtesy of SpottingLog. You can add your own sightings and photos by signing up for a free trial today.



N902NV, 13-May-2016
© Geoff Cook

N280EA, 13-May-2016
© Geoff Cook

N714SY, 13-May-2016
© Geoff Cook

N829AW, 17-May-2014
© Paul Ward

N628AE, 17-May-2014
© Paul Ward

N81546, 17-May-2014
© Paul Ward

N805UA, 17-May-2014
© Paul Ward

N800GV, 17-May-2014
© Paul Ward

N761ND, 17-May-2014
© Paul Ward

N746E, 17-May-2014
© Paul Ward

N734P, 17-May-2014
© Paul Ward

N656RW, 17-May-2014
© Paul Ward


Weather at Cleveland Hopkins International Airport


Time (UTC)DescriptionTempratureWindCloud coverageVisibilityPressureHumidity
18-Apr-2024 00:00Moderate Rain19°C16 mph, W99%10000m1005hPa77%
18-Apr-2024 03:00Light Rain16°C13 mph, SW87%10000m1009hPa83%
18-Apr-2024 06:00Light Rain12°C13 mph, SW62%10000m1011hPa89%
18-Apr-2024 09:00Light Rain10°C13 mph, W73%10000m1014hPa89%
18-Apr-2024 12:00Broken Clouds9°C9 mph, W52%10000m1016hPa86%
18-Apr-2024 15:00Few Clouds11°C13 mph, W18%10000m1018hPa75%
18-Apr-2024 18:00Scattered Clouds12°C9 mph, NW37%10000m1018hPa74%
18-Apr-2024 21:00Scattered Clouds13°C4 mph, NW49%10000m1017hPa70%
19-Apr-2024 00:00Scattered Clouds12°C7 mph, E29%10000m1016hPa74%
19-Apr-2024 03:00Broken Clouds12°C7 mph, SE76%10000m1014hPa81%
19-Apr-2024 06:00Broken Clouds12°C9 mph, SE82%10000m1012hPa81%
19-Apr-2024 09:00Light Rain12°C9 mph, S100%10000m1011hPa88%
19-Apr-2024 12:00Light Rain12°C4 mph, SW100%10000m1010hPa93%
19-Apr-2024 15:00Light Rain8°C11 mph, NW100%10000m1015hPa95%
19-Apr-2024 18:00Broken Clouds11°C16 mph, NW84%10000m1016hPa71%
19-Apr-2024 21:00Scattered Clouds11°C13 mph, NW25%10000m1017hPa52%
20-Apr-2024 00:00Broken Clouds9°C9 mph, W60%10000m1019hPa60%
20-Apr-2024 03:00Overcast Clouds8°C7 mph, SW95%10000m1019hPa65%
20-Apr-2024 06:00Overcast Clouds8°C11 mph, W97%10000m1019hPa64%
20-Apr-2024 09:00Overcast Clouds6°C9 mph, W100%10000m1019hPa70%
20-Apr-2024 12:00Overcast Clouds6°C9 mph, SW94%10000m1019hPa69%
20-Apr-2024 15:00Broken Clouds8°C16 mph, W82%10000m1019hPa59%
20-Apr-2024 18:00Light Rain8°C20 mph, NW71%10000m1020hPa62%
20-Apr-2024 21:00Light Rain8°C18 mph, NW78%10000m1019hPa51%
21-Apr-2024 00:00Broken Clouds7°C13 mph, NW51%10000m1020hPa61%
21-Apr-2024 03:00Clear Sky5°C11 mph, NW0%10000m1021hPa68%
21-Apr-2024 06:00Clear Sky4°C9 mph, W0%10000m1021hPa72%
21-Apr-2024 09:00Clear Sky3°C9 mph, W0%10000m1021hPa71%
21-Apr-2024 12:00Few Clouds4°C9 mph, W11%10000m1022hPa70%
21-Apr-2024 15:00Overcast Clouds7°C11 mph, W85%10000m1022hPa59%
21-Apr-2024 18:00Broken Clouds8°C13 mph, NW64%10000m1020hPa57%
21-Apr-2024 21:00Broken Clouds9°C7 mph, W53%10000m1019hPa54%
22-Apr-2024 00:00Scattered Clouds8°C7 mph, SW34%10000m1018hPa61%
22-Apr-2024 03:00Clear Sky6°C9 mph, SW10%10000m1019hPa70%
22-Apr-2024 06:00Clear Sky6°C7 mph, NW7%10000m1019hPa79%
22-Apr-2024 09:00Clear Sky5°C7 mph, W0%10000m1019hPa79%
22-Apr-2024 12:00Clear Sky5°C7 mph, SW0%10000m1020hPa79%
22-Apr-2024 15:00Clear Sky10°C4 mph, SW0%10000m1020hPa53%
22-Apr-2024 18:00Clear Sky11°C7 mph, NW0%10000m1019hPa52%
22-Apr-2024 21:00Clear Sky11°C7 mph, NW1%10000m1018hPa54%